KACT/ACT METAR and TAF weather

Enter ICAO airport designator
Station Type Date Time Source
KACT METAR 2018/01/23 00:51 UTC NOAA

KACT 230051Z 30007KT 10SM CLR 10/M07 A3011 RMK AO2 SLP194 T01001067


Station Type Date Time Source
KACT Decoded METAR 2018/01/23 00:51 UTC NOAA

WACO REGIONAL AIRPORT, TX, United States (KACT) 31-36N 97-13W 151M
Jan 22, 2018 - 07:51 PM EST / 2018.01.23 0051 UTC
Wind: from the WNW (300 degrees) at 8 MPH (7 KT):0
Visibility: 10 mile(s):0
Sky conditions: clear
Temperature: 50.0 F (10.0 C)
Dew Point: 19.9 F (-6.7 C)
Relative Humidity: 30%
Pressure (altimeter): 30.11 in. Hg (1019 hPa)
ob: KACT 230051Z 30007KT 10SM CLR 10/M07 A3011 RMK AO2 SLP194 T01001067
cycle: 1

Station Type Date Time Source
KACT TAF 2018/01/22 21:12 UTC NOAA

TAF
AMD KACT 222109Z 2221/2318 30015G25KT P6SM SKC
FM230000 30010KT P6SM SKC


Example: see airport list